Terminal Aerodrome Forecast
Issued by NWS

Home | Current Version | Previous Version | Text Only | Print | Product List | Glossary On
Versions: 1 2 3 4 5 6 7 8 9 10 11 12 13 14 15
000
FTUS42 KTAE 030540
TAFDHN
TAF
KDHN 030540Z 0306/0406 22007KT P6SM BKN250
     FM031400 26010KT P6SM SCT040 BKN200
     FM032100 27010G15KT P6SM VCTS BKN050CB=

USA.gov is the U.S. government's official web portal to all federal, state and local government web resources and services.